sensor_id;sensor_type;location;lat;lon;timestamp;P1;durP1;ratioP1;P2;durP2;ratioP2
25237;SDS011;13185;50.872;5.306;2022-08-25T00:00:57;5.22;;;2.63;;
25237;SDS011;13185;50.872;5.306;2022-08-25T00:03:23;9.32;;;2.63;;
25237;SDS011;13185;50.872;5.306;2022-08-25T00:05:48;3.65;;;2.60;;
25237;SDS011;13185;50.872;5.306;2022-08-25T00:08:14;4.78;;;2.58;;
25237;SDS011;13185;50.872;5.306;2022-08-25T00:10:39;9.10;;;2.97;;
25237;SDS011;13185;50.872;5.306;2022-08-25T00:13:06;5.40;;;3.05;;
25237;SDS011;13185;50.872;5.306;2022-08-25T00:15:32;4.68;;;2.45;;
25237;SDS011;13185;50.872;5.306;2022-08-25T00:17:58;8.73;;;2.50;;
25237;SDS011;13185;50.872;5.306;2022-08-25T00:20:24;4.63;;;2.10;;
25237;SDS011;13185;50.872;5.306;2022-08-25T00:22:50;4.22;;;2.38;;
25237;SDS011;13185;50.872;5.306;2022-08-25T00:25:16;7.57;;;2.60;;
25237;SDS011;13185;50.872;5.306;2022-08-25T00:27:42;3.30;;;2.40;;
25237;SDS011;13185;50.872;5.306;2022-08-25T00:30:08;5.57;;;2.50;;
25237;SDS011;13185;50.872;5.306;2022-08-25T00:32:34;5.68;;;3.08;;
25237;SDS011;13185;50.872;5.306;2022-08-25T00:35:00;7.22;;;2.80;;
25237;SDS011;13185;50.872;5.306;2022-08-25T00:37:26;5.80;;;2.40;;
25237;SDS011;13185;50.872;5.306;2022-08-25T00:39:52;5.68;;;2.50;;
25237;SDS011;13185;50.872;5.306;2022-08-25T00:42:19;3.50;;;2.78;;
25237;SDS011;13185;50.872;5.306;2022-08-25T00:44:45;5.75;;;2.60;;
25237;SDS011;13185;50.872;5.306;2022-08-25T00:47:11;6.50;;;2.33;;
25237;SDS011;13185;50.872;5.306;2022-08-25T00:49:41;7.13;;;2.30;;
25237;SDS011;13185;50.872;5.306;2022-08-25T00:52:22;8.03;;;2.77;;
25237;SDS011;13185;50.872;5.306;2022-08-25T00:54:52;5.40;;;2.40;;
25237;SDS011;13185;50.872;5.306;2022-08-25T00:57:24;5.78;;;2.80;;
25237;SDS011;13185;50.872;5.306;2022-08-25T00:59:57;3.97;;;2.75;;
25237;SDS011;13185;50.872;5.306;2022-08-25T01:02:23;4.25;;;2.50;;
25237;SDS011;13185;50.872;5.306;2022-08-25T01:04:49;4.55;;;2.75;;
25237;SDS011;13185;50.872;5.306;2022-08-25T01:07:15;2.47;;;2.28;;
25237;SDS011;13185;50.872;5.306;2022-08-25T01:09:43;4.57;;;2.53;;
25237;SDS011;13185;50.872;5.306;2022-08-25T01:12:09;7.25;;;3.05;;
25237;SDS011;13185;50.872;5.306;2022-08-25T01:14:34;8.93;;;3.45;;
25237;SDS011;13185;50.872;5.306;2022-08-25T01:17:01;5.53;;;3.08;;
25237;SDS011;13185;50.872;5.306;2022-08-25T01:19:28;4.88;;;2.83;;
25237;SDS011;13185;50.872;5.306;2022-08-25T01:21:54;4.13;;;2.72;;
25237;SDS011;13185;50.872;5.306;2022-08-25T01:24:38;9.90;;;3.50;;
25237;SDS011;13185;50.872;5.306;2022-08-25T01:27:09;4.63;;;2.92;;
25237;SDS011;13185;50.872;5.306;2022-08-25T01:29:36;4.43;;;3.50;;
25237;SDS011;13185;50.872;5.306;2022-08-25T01:32:03;4.55;;;3.15;;
25237;SDS011;13185;50.872;5.306;2022-08-25T01:34:32;4.22;;;2.80;;
25237;SDS011;13185;50.872;5.306;2022-08-25T01:36:59;6.95;;;3.03;;
25237;SDS011;13185;50.872;5.306;2022-08-25T01:39:26;6.00;;;3.15;;
25237;SDS011;13185;50.872;5.306;2022-08-25T01:44:41;7.75;;;3.08;;
25237;SDS011;13185;50.872;5.306;2022-08-25T01:47:08;5.43;;;3.50;;
25237;SDS011;13185;50.872;5.306;2022-08-25T01:49:35;3.75;;;3.20;;
25237;SDS011;13185;50.872;5.306;2022-08-25T01:52:04;4.00;;;3.00;;
25237;SDS011;13185;50.872;5.306;2022-08-25T01:54:34;3.42;;;2.85;;
25237;SDS011;13185;50.872;5.306;2022-08-25T01:56:59;7.75;;;3.10;;
25237;SDS011;13185;50.872;5.306;2022-08-25T01:59:26;7.03;;;3.13;;
25237;SDS011;13185;50.872;5.306;2022-08-25T02:01:52;5.28;;;3.10;;
25237;SDS011;13185;50.872;5.306;2022-08-25T02:04:18;4.28;;;3.30;;
25237;SDS011;13185;50.872;5.306;2022-08-25T02:06:43;6.50;;;3.35;;
25237;SDS011;13185;50.872;5.306;2022-08-25T02:09:11;7.82;;;3.08;;
25237;SDS011;13185;50.872;5.306;2022-08-25T02:11:39;5.25;;;3.20;;
25237;SDS011;13185;50.872;5.306;2022-08-25T02:14:07;6.85;;;2.80;;
25237;SDS011;13185;50.872;5.306;2022-08-25T02:16:34;7.57;;;3.50;;
25237;SDS011;13185;50.872;5.306;2022-08-25T02:19:02;5.20;;;2.72;;
25237;SDS011;13185;50.872;5.306;2022-08-25T02:21:29;5.85;;;3.05;;
25237;SDS011;13185;50.872;5.306;2022-08-25T02:23:55;9.38;;;3.13;;
25237;SDS011;13185;50.872;5.306;2022-08-25T02:26:21;6.20;;;3.35;;
25237;SDS011;13185;50.872;5.306;2022-08-25T02:28:47;7.03;;;3.65;;
25237;SDS011;13185;50.872;5.306;2022-08-25T02:31:15;5.70;;;2.88;;
25237;SDS011;13185;50.872;5.306;2022-08-25T02:33:41;5.10;;;3.35;;
25237;SDS011;13185;50.872;5.306;2022-08-25T02:36:07;7.32;;;3.90;;
25237;SDS011;13185;50.872;5.306;2022-08-25T02:38:34;5.38;;;2.97;;
25237;SDS011;13185;50.872;5.306;2022-08-25T02:41:00;4.55;;;2.97;;
25237;SDS011;13185;50.872;5.306;2022-08-25T02:43:43;5.53;;;3.33;;
25237;SDS011;13185;50.872;5.306;2022-08-25T02:46:10;5.55;;;3.50;;
25237;SDS011;13185;50.872;5.306;2022-08-25T02:48:36;6.90;;;3.20;;
25237;SDS011;13185;50.872;5.306;2022-08-25T02:51:02;4.72;;;3.60;;
25237;SDS011;13185;50.872;5.306;2022-08-25T02:53:29;4.60;;;3.63;;
25237;SDS011;13185;50.872;5.306;2022-08-25T02:55:55;6.05;;;3.78;;
25237;SDS011;13185;50.872;5.306;2022-08-25T02:58:20;7.88;;;3.35;;
25237;SDS011;13185;50.872;5.306;2022-08-25T03:00:46;6.07;;;3.47;;
25237;SDS011;13185;50.872;5.306;2022-08-25T03:03:13;7.30;;;3.70;;
25237;SDS011;13185;50.872;5.306;2022-08-25T03:05:39;6.93;;;3.70;;
25237;SDS011;13185;50.872;5.306;2022-08-25T03:08:05;8.95;;;4.03;;
25237;SDS011;13185;50.872;5.306;2022-08-25T03:10:32;7.47;;;4.53;;
25237;SDS011;13185;50.872;5.306;2022-08-25T03:12:58;6.38;;;3.83;;
25237;SDS011;13185;50.872;5.306;2022-08-25T03:15:23;8.07;;;3.70;;
25237;SDS011;13185;50.872;5.306;2022-08-25T03:17:52;7.28;;;3.70;;
25237;SDS011;13185;50.872;5.306;2022-08-25T03:20:18;6.40;;;3.72;;
25237;SDS011;13185;50.872;5.306;2022-08-25T03:22:44;7.10;;;3.90;;
25237;SDS011;13185;50.872;5.306;2022-08-25T03:25:10;7.45;;;3.95;;
25237;SDS011;13185;50.872;5.306;2022-08-25T03:27:54;5.10;;;3.65;;
25237;SDS011;13185;50.872;5.306;2022-08-25T03:30:20;5.70;;;3.88;;
25237;SDS011;13185;50.872;5.306;2022-08-25T03:32:45;4.85;;;3.70;;
25237;SDS011;13185;50.872;5.306;2022-08-25T03:35:11;4.63;;;3.40;;
25237;SDS011;13185;50.872;5.306;2022-08-25T03:37:37;5.70;;;3.80;;
25237;SDS011;13185;50.872;5.306;2022-08-25T03:40:04;5.90;;;3.78;;
25237;SDS011;13185;50.872;5.306;2022-08-25T03:42:33;5.65;;;3.50;;
25237;SDS011;13185;50.872;5.306;2022-08-25T03:45:00;8.00;;;4.13;;
25237;SDS011;13185;50.872;5.306;2022-08-25T03:47:28;6.68;;;3.75;;
25237;SDS011;13185;50.872;5.306;2022-08-25T03:49:54;8.60;;;3.92;;
25237;SDS011;13185;50.872;5.306;2022-08-25T03:52:20;7.72;;;4.03;;
25237;SDS011;13185;50.872;5.306;2022-08-25T03:54:46;7.32;;;3.35;;
25237;SDS011;13185;50.872;5.306;2022-08-25T03:57:11;9.27;;;4.38;;
25237;SDS011;13185;50.872;5.306;2022-08-25T03:59:37;7.63;;;3.40;;
25237;SDS011;13185;50.872;5.306;2022-08-25T04:02:03;9.50;;;3.50;;
25237;SDS011;13185;50.872;5.306;2022-08-25T04:04:30;6.47;;;3.20;;
25237;SDS011;13185;50.872;5.306;2022-08-25T04:06:56;8.38;;;3.72;;
25237;SDS011;13185;50.872;5.306;2022-08-25T04:09:22;6.25;;;3.45;;
25237;SDS011;13185;50.872;5.306;2022-08-25T04:11:48;6.93;;;3.38;;
25237;SDS011;13185;50.872;5.306;2022-08-25T04:14:14;6.43;;;3.55;;
25237;SDS011;13185;50.872;5.306;2022-08-25T04:16:39;6.20;;;3.92;;
25237;SDS011;13185;50.872;5.306;2022-08-25T04:19:05;3.85;;;3.47;;
25237;SDS011;13185;50.872;5.306;2022-08-25T04:21:33;7.30;;;3.47;;
25237;SDS011;13185;50.872;5.306;2022-08-25T04:24:00;4.97;;;3.50;;
25237;SDS011;13185;50.872;5.306;2022-08-25T04:26:27;6.30;;;4.03;;
25237;SDS011;13185;50.872;5.306;2022-08-25T04:28:55;6.40;;;3.60;;
25237;SDS011;13185;50.872;5.306;2022-08-25T04:31:22;7.90;;;4.15;;
25237;SDS011;13185;50.872;5.306;2022-08-25T04:33:48;11.48;;;4.60;;
25237;SDS011;13185;50.872;5.306;2022-08-25T04:36:15;5.25;;;3.83;;
25237;SDS011;13185;50.872;5.306;2022-08-25T04:38:42;5.32;;;3.40;;
25237;SDS011;13185;50.872;5.306;2022-08-25T04:41:10;6.45;;;4.03;;
25237;SDS011;13185;50.872;5.306;2022-08-25T04:43:37;12.07;;;4.18;;
25237;SDS011;13185;50.872;5.306;2022-08-25T04:46:04;8.25;;;4.10;;
25237;SDS011;13185;50.872;5.306;2022-08-25T04:48:32;8.90;;;4.47;;
25237;SDS011;13185;50.872;5.306;2022-08-25T04:51:02;7.47;;;4.38;;
25237;SDS011;13185;50.872;5.306;2022-08-25T04:53:29;10.07;;;3.55;;
25237;SDS011;13185;50.872;5.306;2022-08-25T04:55:56;6.05;;;3.35;;
25237;SDS011;13185;50.872;5.306;2022-08-25T04:58:22;7.55;;;3.72;;
25237;SDS011;13185;50.872;5.306;2022-08-25T05:00:47;4.70;;;3.55;;
25237;SDS011;13185;50.872;5.306;2022-08-25T05:03:13;6.65;;;4.00;;
25237;SDS011;13185;50.872;5.306;2022-08-25T05:05:38;6.07;;;4.10;;
25237;SDS011;13185;50.872;5.306;2022-08-25T05:08:04;5.45;;;3.65;;
25237;SDS011;13185;50.872;5.306;2022-08-25T05:10:31;5.90;;;3.40;;
25237;SDS011;13185;50.872;5.306;2022-08-25T05:12:57;5.80;;;3.75;;
25237;SDS011;13185;50.872;5.306;2022-08-25T05:15:24;8.20;;;4.05;;
25237;SDS011;13185;50.872;5.306;2022-08-25T05:18:09;7.50;;;3.95;;
25237;SDS011;13185;50.872;5.306;2022-08-25T05:20:35;11.13;;;4.25;;
25237;SDS011;13185;50.872;5.306;2022-08-25T05:23:01;11.35;;;4.20;;
25237;SDS011;13185;50.872;5.306;2022-08-25T05:25:27;12.25;;;4.45;;
25237;SDS011;13185;50.872;5.306;2022-08-25T05:27:53;17.80;;;4.72;;
25237;SDS011;13185;50.872;5.306;2022-08-25T05:30:19;17.77;;;4.47;;
25237;SDS011;13185;50.872;5.306;2022-08-25T05:32:44;13.15;;;4.15;;
25237;SDS011;13185;50.872;5.306;2022-08-25T05:35:09;9.75;;;3.85;;
25237;SDS011;13185;50.872;5.306;2022-08-25T05:37:35;9.18;;;3.85;;
25237;SDS011;13185;50.872;5.306;2022-08-25T05:40:02;9.73;;;4.05;;
25237;SDS011;13185;50.872;5.306;2022-08-25T05:42:32;13.10;;;4.35;;
25237;SDS011;13185;50.872;5.306;2022-08-25T05:44:58;11.30;;;4.70;;
25237;SDS011;13185;50.872;5.306;2022-08-25T05:47:23;10.07;;;4.63;;
25237;SDS011;13185;50.872;5.306;2022-08-25T05:49:49;11.40;;;3.97;;
25237;SDS011;13185;50.872;5.306;2022-08-25T05:52:14;12.25;;;4.05;;
25237;SDS011;13185;50.872;5.306;2022-08-25T05:54:40;13.15;;;4.25;;
25237;SDS011;13185;50.872;5.306;2022-08-25T05:57:06;12.68;;;5.30;;
25237;SDS011;13185;50.872;5.306;2022-08-25T05:59:31;9.88;;;3.75;;
25237;SDS011;13185;50.872;5.306;2022-08-25T06:01:57;12.98;;;4.55;;
25237;SDS011;13185;50.872;5.306;2022-08-25T06:04:41;10.05;;;3.78;;
25237;SDS011;13185;50.872;5.306;2022-08-25T06:07:07;8.45;;;3.97;;
25237;SDS011;13185;50.872;5.306;2022-08-25T06:09:32;15.80;;;4.05;;
25237;SDS011;13185;50.872;5.306;2022-08-25T06:11:58;10.82;;;4.15;;
25237;SDS011;13185;50.872;5.306;2022-08-25T06:14:23;12.95;;;3.88;;
25237;SDS011;13185;50.872;5.306;2022-08-25T06:16:49;11.13;;;4.38;;
25237;SDS011;13185;50.872;5.306;2022-08-25T06:19:16;8.82;;;3.67;;
25237;SDS011;13185;50.872;5.306;2022-08-25T06:21:42;9.50;;;3.78;;
25237;SDS011;13185;50.872;5.306;2022-08-25T06:24:07;14.32;;;4.43;;
25237;SDS011;13185;50.872;5.306;2022-08-25T06:26:34;9.10;;;3.35;;
25237;SDS011;13185;50.872;5.306;2022-08-25T06:29:00;10.73;;;3.60;;
25237;SDS011;13185;50.872;5.306;2022-08-25T06:31:26;14.45;;;3.80;;
25237;SDS011;13185;50.872;5.306;2022-08-25T06:33:52;14.63;;;3.55;;
25237;SDS011;13185;50.872;5.306;2022-08-25T06:36:17;6.78;;;2.75;;
25237;SDS011;13185;50.872;5.306;2022-08-25T06:38:44;9.20;;;2.70;;
25237;SDS011;13185;50.872;5.306;2022-08-25T06:41:10;7.03;;;2.80;;
25237;SDS011;13185;50.872;5.306;2022-08-25T06:43:37;6.32;;;3.65;;
25237;SDS011;13185;50.872;5.306;2022-08-25T06:48:55;5.35;;;2.28;;
25237;SDS011;13185;50.872;5.306;2022-08-25T06:51:22;12.40;;;2.90;;
25237;SDS011;13185;50.872;5.306;2022-08-25T06:53:49;6.90;;;2.97;;
25237;SDS011;13185;50.872;5.306;2022-08-25T06:56:15;6.97;;;2.70;;
25237;SDS011;13185;50.872;5.306;2022-08-25T06:58:42;4.63;;;2.53;;
25237;SDS011;13185;50.872;5.306;2022-08-25T07:01:08;7.40;;;2.83;;
25237;SDS011;13185;50.872;5.306;2022-08-25T07:03:35;6.38;;;2.55;;
25237;SDS011;13185;50.872;5.306;2022-08-25T07:06:01;5.72;;;2.50;;
25237;SDS011;13185;50.872;5.306;2022-08-25T07:08:26;7.93;;;2.58;;
25237;SDS011;13185;50.872;5.306;2022-08-25T07:10:52;10.40;;;3.00;;
25237;SDS011;13185;50.872;5.306;2022-08-25T07:13:17;6.57;;;2.35;;
25237;SDS011;13185;50.872;5.306;2022-08-25T07:15:43;7.45;;;2.33;;
25237;SDS011;13185;50.872;5.306;2022-08-25T07:18:09;6.20;;;2.75;;
25237;SDS011;13185;50.872;5.306;2022-08-25T07:20:38;5.38;;;1.90;;
25237;SDS011;13185;50.872;5.306;2022-08-25T07:23:04;5.63;;;2.60;;
25237;SDS011;13185;50.872;5.306;2022-08-25T07:25:31;2.55;;;2.30;;
25237;SDS011;13185;50.872;5.306;2022-08-25T07:27:58;4.40;;;2.40;;
25237;SDS011;13185;50.872;5.306;2022-08-25T07:30:23;6.32;;;2.17;;
25237;SDS011;13185;50.872;5.306;2022-08-25T07:32:49;4.70;;;2.53;;
25237;SDS011;13185;50.872;5.306;2022-08-25T07:35:15;5.88;;;2.75;;
25237;SDS011;13185;50.872;5.306;2022-08-25T07:37:42;4.65;;;2.88;;
25237;SDS011;13185;50.872;5.306;2022-08-25T07:40:13;6.30;;;2.70;;
25237;SDS011;13185;50.872;5.306;2022-08-25T07:42:45;4.88;;;2.30;;
25237;SDS011;13185;50.872;5.306;2022-08-25T07:45:12;4.63;;;2.30;;
25237;SDS011;13185;50.872;5.306;2022-08-25T07:47:39;10.50;;;3.00;;
25237;SDS011;13185;50.872;5.306;2022-08-25T07:50:08;6.38;;;2.30;;
25237;SDS011;13185;50.872;5.306;2022-08-25T07:52:36;4.00;;;2.20;;
25237;SDS011;13185;50.872;5.306;2022-08-25T07:55:03;5.43;;;1.95;;
25237;SDS011;13185;50.872;5.306;2022-08-25T07:57:32;4.85;;;2.10;;
25237;SDS011;13185;50.872;5.306;2022-08-25T07:59:58;4.43;;;2.25;;
25237;SDS011;13185;50.872;5.306;2022-08-25T08:02:24;2.60;;;1.98;;
25237;SDS011;13185;50.872;5.306;2022-08-25T08:04:50;3.72;;;2.30;;
25237;SDS011;13185;50.872;5.306;2022-08-25T08:07:18;8.25;;;2.70;;
25237;SDS011;13185;50.872;5.306;2022-08-25T08:09:49;8.17;;;1.97;;
25237;SDS011;13185;50.872;5.306;2022-08-25T08:12:14;3.90;;;2.22;;
25237;SDS011;13185;50.872;5.306;2022-08-25T08:14:40;3.13;;;1.90;;
25237;SDS011;13185;50.872;5.306;2022-08-25T08:17:06;10.23;;;2.20;;
25237;SDS011;13185;50.872;5.306;2022-08-25T08:19:33;6.20;;;2.17;;
25237;SDS011;13185;50.872;5.306;2022-08-25T08:21:59;9.63;;;2.15;;
25237;SDS011;13185;50.872;5.306;2022-08-25T08:24:27;18.55;;;2.50;;
25237;SDS011;13185;50.872;5.306;2022-08-25T08:26:54;13.77;;;2.72;;
25237;SDS011;13185;50.872;5.306;2022-08-25T08:29:19;9.90;;;2.05;;
25237;SDS011;13185;50.872;5.306;2022-08-25T08:31:46;3.55;;;1.80;;
25237;SDS011;13185;50.872;5.306;2022-08-25T08:34:13;5.32;;;2.60;;
25237;SDS011;13185;50.872;5.306;2022-08-25T08:36:39;10.25;;;2.28;;
25237;SDS011;13185;50.872;5.306;2022-08-25T08:39:04;4.32;;;1.98;;
25237;SDS011;13185;50.872;5.306;2022-08-25T08:52:51;26.98;;;3.22;;
25237;SDS011;13185;50.872;5.306;2022-08-25T08:57:50;63.92;;;7.75;;
25237;SDS011;13185;50.872;5.306;2022-08-25T09:00:19;37.17;;;4.70;;
25237;SDS011;13185;50.872;5.306;2022-08-25T09:03:05;21.42;;;3.33;;
25237;SDS011;13185;50.872;5.306;2022-08-25T09:05:45;16.35;;;2.88;;
25237;SDS011;13185;50.872;5.306;2022-08-25T09:08:13;12.50;;;2.10;;
25237;SDS011;13185;50.872;5.306;2022-08-25T09:13:23;9.35;;;2.25;;
25237;SDS011;13185;50.872;5.306;2022-08-25T09:24:56;3.28;;;1.60;;
25237;SDS011;13185;50.872;5.306;2022-08-25T09:30:19;4.25;;;2.10;;
25237;SDS011;13185;50.872;5.306;2022-08-25T09:32:50;7.00;;;2.40;;
25237;SDS011;13185;50.872;5.306;2022-08-25T09:35:29;6.03;;;1.60;;
25237;SDS011;13185;50.872;5.306;2022-08-25T09:40:25;4.32;;;1.85;;
25237;SDS011;13185;50.872;5.306;2022-08-25T09:42:52;12.30;;;3.30;;
25237;SDS011;13185;50.872;5.306;2022-08-25T09:48:23;2.50;;;1.50;;
25237;SDS011;13185;50.872;5.306;2022-08-25T09:53:53;5.07;;;1.75;;
25237;SDS011;13185;50.872;5.306;2022-08-25T09:56:31;17.67;;;1.90;;
25237;SDS011;13185;50.872;5.306;2022-08-25T09:59:17;6.55;;;1.45;;
25237;SDS011;13185;50.872;5.306;2022-08-25T10:01:47;6.50;;;1.38;;
25237;SDS011;13185;50.872;5.306;2022-08-25T10:04:29;13.88;;;1.52;;
25237;SDS011;13185;50.872;5.306;2022-08-25T10:06:57;9.40;;;1.70;;
25237;SDS011;13185;50.872;5.306;2022-08-25T10:09:31;9.98;;;1.90;;
25237;SDS011;13185;50.872;5.306;2022-08-25T10:11:59;11.93;;;1.33;;
25237;SDS011;13185;50.872;5.306;2022-08-25T10:14:33;8.60;;;1.40;;
25237;SDS011;13185;50.872;5.306;2022-08-25T10:19:39;3.83;;;1.38;;
25237;SDS011;13185;50.872;5.306;2022-08-25T10:22:07;6.00;;;1.50;;
25237;SDS011;13185;50.872;5.306;2022-08-25T10:24:44;5.20;;;1.42;;
25237;SDS011;13185;50.872;5.306;2022-08-25T10:35:17;12.32;;;2.40;;
25237;SDS011;13185;50.872;5.306;2022-08-25T10:43:31;14.85;;;2.80;;
25237;SDS011;13185;50.872;5.306;2022-08-25T11:01:52;5.53;;;1.40;;
25237;SDS011;13185;50.872;5.306;2022-08-25T11:07:24;5.28;;;1.40;;
25237;SDS011;13185;50.872;5.306;2022-08-25T11:09:59;15.05;;;3.20;;
25237;SDS011;13185;50.872;5.306;2022-08-25T11:12:50;4.53;;;2.00;;
25237;SDS011;13185;50.872;5.306;2022-08-25T11:15:22;4.68;;;2.03;;
25237;SDS011;13185;50.872;5.306;2022-08-25T11:18:21;15.50;;;1.85;;
25237;SDS011;13185;50.872;5.306;2022-08-25T11:21:00;4.28;;;1.08;;
25237;SDS011;13185;50.872;5.306;2022-08-25T11:23:43;3.53;;;1.33;;
25237;SDS011;13185;50.872;5.306;2022-08-25T11:26:16;5.10;;;1.20;;
25237;SDS011;13185;50.872;5.306;2022-08-25T11:29:04;2.28;;;1.08;;
25237;SDS011;13185;50.872;5.306;2022-08-25T11:31:36;4.57;;;1.10;;
25237;SDS011;13185;50.872;5.306;2022-08-25T11:34:10;5.90;;;1.25;;
25237;SDS011;13185;50.872;5.306;2022-08-25T11:37:03;2.67;;;1.08;;
25237;SDS011;13185;50.872;5.306;2022-08-25T11:42:34;3.80;;;1.10;;
25237;SDS011;13185;50.872;5.306;2022-08-25T11:51:29;2.67;;;0.90;;
25237;SDS011;13185;50.872;5.306;2022-08-25T11:56:38;3.80;;;1.20;;
25237;SDS011;13185;50.872;5.306;2022-08-25T11:59:05;4.15;;;1.10;;
25237;SDS011;13185;50.872;5.306;2022-08-25T12:14:52;2.72;;;1.27;;
25237;SDS011;13185;50.872;5.306;2022-08-25T12:17:20;5.43;;;1.63;;
25237;SDS011;13185;50.872;5.306;2022-08-25T12:19:52;6.03;;;1.65;;
25237;SDS011;13185;50.872;5.306;2022-08-25T12:30:27;4.82;;;1.33;;
25237;SDS011;13185;50.872;5.306;2022-08-25T12:36:04;6.63;;;1.63;;
25237;SDS011;13185;50.872;5.306;2022-08-25T12:38:37;5.85;;;1.40;;
25237;SDS011;13185;50.872;5.306;2022-08-25T12:41:16;5.50;;;1.48;;
25237;SDS011;13185;50.872;5.306;2022-08-25T12:43:47;8.90;;;1.50;;
25237;SDS011;13185;50.872;5.306;2022-08-25T12:54:40;4.28;;;1.30;;
25237;SDS011;13185;50.872;5.306;2022-08-25T12:59:49;4.03;;;1.42;;
25237;SDS011;13185;50.872;5.306;2022-08-25T13:02:26;5.72;;;1.58;;
25237;SDS011;13185;50.872;5.306;2022-08-25T13:13:09;13.43;;;2.80;;
25237;SDS011;13185;50.872;5.306;2022-08-25T13:15:45;6.65;;;1.40;;
25237;SDS011;13185;50.872;5.306;2022-08-25T13:20:54;6.72;;;1.30;;
25237;SDS011;13185;50.872;5.306;2022-08-25T13:23:27;4.05;;;1.63;;
25237;SDS011;13185;50.872;5.306;2022-08-25T13:25:55;3.05;;;1.33;;
25237;SDS011;13185;50.872;5.306;2022-08-25T13:28:23;9.23;;;1.63;;
25237;SDS011;13185;50.872;5.306;2022-08-25T13:30:57;8.02;;;1.50;;
25237;SDS011;13185;50.872;5.306;2022-08-25T13:33:24;6.78;;;1.38;;
25237;SDS011;13185;50.872;5.306;2022-08-25T13:35:51;3.67;;;1.88;;
25237;SDS011;13185;50.872;5.306;2022-08-25T13:38:39;3.28;;;1.00;;
25237;SDS011;13185;50.872;5.306;2022-08-25T13:41:07;6.53;;;1.75;;
25237;SDS011;13185;50.872;5.306;2022-08-25T13:43:33;8.57;;;1.45;;
25237;SDS011;13185;50.872;5.306;2022-08-25T13:46:00;3.33;;;1.65;;
25237;SDS011;13185;50.872;5.306;2022-08-25T13:48:36;6.03;;;1.48;;
25237;SDS011;13185;50.872;5.306;2022-08-25T13:51:05;9.00;;;2.92;;
25237;SDS011;13185;50.872;5.306;2022-08-25T13:53:33;5.40;;;2.00;;
25237;SDS011;13185;50.872;5.306;2022-08-25T13:56:00;6.60;;;1.60;;
25237;SDS011;13185;50.872;5.306;2022-08-25T13:58:31;3.92;;;1.38;;
25237;SDS011;13185;50.872;5.306;2022-08-25T14:01:08;2.92;;;1.45;;
25237;SDS011;13185;50.872;5.306;2022-08-25T14:03:38;7.40;;;1.50;;
25237;SDS011;13185;50.872;5.306;2022-08-25T14:06:10;3.92;;;1.35;;
25237;SDS011;13185;50.872;5.306;2022-08-25T14:08:47;3.15;;;1.25;;
25237;SDS011;13185;50.872;5.306;2022-08-25T14:11:29;4.95;;;1.33;;
25237;SDS011;13185;50.872;5.306;2022-08-25T14:14:06;3.30;;;1.10;;
25237;SDS011;13185;50.872;5.306;2022-08-25T14:16:37;4.38;;;1.52;;
25237;SDS011;13185;50.872;5.306;2022-08-25T14:19:18;3.03;;;1.20;;
25237;SDS011;13185;50.872;5.306;2022-08-25T14:21:47;4.18;;;1.30;;
25237;SDS011;13185;50.872;5.306;2022-08-25T14:24:16;5.40;;;1.50;;
25237;SDS011;13185;50.872;5.306;2022-08-25T14:26:43;3.97;;;1.30;;
25237;SDS011;13185;50.872;5.306;2022-08-25T14:29:10;4.07;;;1.42;;
25237;SDS011;13185;50.872;5.306;2022-08-25T14:31:36;2.97;;;1.20;;
25237;SDS011;13185;50.872;5.306;2022-08-25T14:34:17;3.58;;;1.55;;
25237;SDS011;13185;50.872;5.306;2022-08-25T14:36:45;9.15;;;1.35;;
25237;SDS011;13185;50.872;5.306;2022-08-25T14:39:12;2.28;;;1.10;;
25237;SDS011;13185;50.872;5.306;2022-08-25T14:41:39;2.05;;;1.20;;
25237;SDS011;13185;50.872;5.306;2022-08-25T14:44:06;2.05;;;1.25;;
25237;SDS011;13185;50.872;5.306;2022-08-25T14:46:37;6.00;;;1.40;;
25237;SDS011;13185;50.872;5.306;2022-08-25T14:49:07;4.25;;;1.45;;
25237;SDS011;13185;50.872;5.306;2022-08-25T14:51:36;4.97;;;1.40;;
25237;SDS011;13185;50.872;5.306;2022-08-25T14:54:06;5.30;;;1.75;;
25237;SDS011;13185;50.872;5.306;2022-08-25T14:56:36;3.13;;;1.10;;
25237;SDS011;13185;50.872;5.306;2022-08-25T14:59:02;4.13;;;1.38;;
25237;SDS011;13185;50.872;5.306;2022-08-25T15:01:27;4.63;;;1.60;;
25237;SDS011;13185;50.872;5.306;2022-08-25T15:03:54;5.80;;;1.40;;
25237;SDS011;13185;50.872;5.306;2022-08-25T15:06:27;5.93;;;1.33;;
25237;SDS011;13185;50.872;5.306;2022-08-25T15:08:53;5.13;;;1.33;;
25237;SDS011;13185;50.872;5.306;2022-08-25T15:11:49;5.13;;;1.48;;
25237;SDS011;13185;50.872;5.306;2022-08-25T15:14:17;6.30;;;1.48;;
25237;SDS011;13185;50.872;5.306;2022-08-25T15:16:47;3.42;;;1.70;;
25237;SDS011;13185;50.872;5.306;2022-08-25T15:19:18;3.85;;;1.67;;
25237;SDS011;13185;50.872;5.306;2022-08-25T15:21:47;4.43;;;1.45;;
25237;SDS011;13185;50.872;5.306;2022-08-25T15:24:13;7.78;;;1.48;;
25237;SDS011;13185;50.872;5.306;2022-08-25T15:26:45;2.00;;;1.20;;
25237;SDS011;13185;50.872;5.306;2022-08-25T15:29:15;3.65;;;1.55;;
25237;SDS011;13185;50.872;5.306;2022-08-25T15:31:41;1.73;;;1.20;;
25237;SDS011;13185;50.872;5.306;2022-08-25T15:34:07;7.55;;;1.52;;
25237;SDS011;13185;50.872;5.306;2022-08-25T15:36:33;4.22;;;1.50;;
25237;SDS011;13185;50.872;5.306;2022-08-25T15:39:00;4.95;;;1.30;;
25237;SDS011;13185;50.872;5.306;2022-08-25T15:41:26;4.65;;;1.42;;
25237;SDS011;13185;50.872;5.306;2022-08-25T15:43:51;4.00;;;1.65;;
25237;SDS011;13185;50.872;5.306;2022-08-25T15:46:18;3.33;;;1.27;;
25237;SDS011;13185;50.872;5.306;2022-08-25T15:48:50;3.10;;;1.20;;
25237;SDS011;13185;50.872;5.306;2022-08-25T15:51:16;2.25;;;1.40;;
25237;SDS011;13185;50.872;5.306;2022-08-25T15:53:43;4.07;;;1.20;;
25237;SDS011;13185;50.872;5.306;2022-08-25T15:56:09;3.50;;;1.17;;
25237;SDS011;13185;50.872;5.306;2022-08-25T15:58:38;3.70;;;1.33;;
25237;SDS011;13185;50.872;5.306;2022-08-25T16:01:04;4.38;;;1.45;;
25237;SDS011;13185;50.872;5.306;2022-08-25T16:03:30;3.78;;;1.23;;
25237;SDS011;13185;50.872;5.306;2022-08-25T16:05:56;6.32;;;1.60;;
25237;SDS011;13185;50.872;5.306;2022-08-25T16:08:21;3.13;;;1.40;;
25237;SDS011;13185;50.872;5.306;2022-08-25T16:10:47;4.18;;;1.30;;
25237;SDS011;13185;50.872;5.306;2022-08-25T16:13:12;6.32;;;1.55;;
25237;SDS011;13185;50.872;5.306;2022-08-25T16:15:38;2.35;;;1.30;;
25237;SDS011;13185;50.872;5.306;2022-08-25T16:18:05;3.17;;;1.38;;
25237;SDS011;13185;50.872;5.306;2022-08-25T16:20:32;5.90;;;1.55;;
25237;SDS011;13185;50.872;5.306;2022-08-25T16:22:58;4.35;;;2.38;;
25237;SDS011;13185;50.872;5.306;2022-08-25T16:25:26;6.20;;;1.38;;
25237;SDS011;13185;50.872;5.306;2022-08-25T16:27:53;3.75;;;1.05;;
25237;SDS011;13185;50.872;5.306;2022-08-25T16:30:18;3.28;;;1.20;;
25237;SDS011;13185;50.872;5.306;2022-08-25T16:32:44;6.22;;;1.60;;
25237;SDS011;13185;50.872;5.306;2022-08-25T16:35:10;2.88;;;1.20;;
25237;SDS011;13185;50.872;5.306;2022-08-25T16:37:37;2.55;;;1.35;;
25237;SDS011;13185;50.872;5.306;2022-08-25T16:40:02;4.20;;;1.65;;
25237;SDS011;13185;50.872;5.306;2022-08-25T16:42:28;3.33;;;1.35;;
25237;SDS011;13185;50.872;5.306;2022-08-25T16:44:54;4.45;;;1.30;;
25237;SDS011;13185;50.872;5.306;2022-08-25T16:47:19;5.72;;;1.45;;
25237;SDS011;13185;50.872;5.306;2022-08-25T16:49:45;4.43;;;1.10;;
25237;SDS011;13185;50.872;5.306;2022-08-25T16:52:11;2.13;;;1.27;;
25237;SDS011;13185;50.872;5.306;2022-08-25T16:54:56;3.13;;;1.15;;
25237;SDS011;13185;50.872;5.306;2022-08-25T16:57:37;5.82;;;1.40;;
25237;SDS011;13185;50.872;5.306;2022-08-25T17:00:05;5.28;;;1.20;;
25237;SDS011;13185;50.872;5.306;2022-08-25T17:02:33;5.15;;;1.50;;
25237;SDS011;13185;50.872;5.306;2022-08-25T17:04:58;4.07;;;1.48;;
25237;SDS011;13185;50.872;5.306;2022-08-25T17:07:24;3.80;;;1.60;;
25237;SDS011;13185;50.872;5.306;2022-08-25T17:09:49;4.63;;;1.70;;